< < Back
Terminal Aerodrome Forecast


Current Version              Previous Versions:   1  2  3  4  5  6  7  8  9  

Terminal Aerodrome Forecast

007
FTUS42 KGSP 300500 RRA
TAFAVL
TAF
KAVL 300540Z 3006/0106 00000KT 2SM BR SCT002
      TEMPO 3006/3010 1/2SM FG OVC002
     FM301000 00000KT 1/2SM FG VV002
     FM301400 33004KT P6SM SCT010
     FM301500 34004KT P6SM SCT250
     FM010200 30003KT 5SM BR FEW060=

Latest METAR

038
SAUS70 KWBC 301200 RRN
MTRAVL
METAR KAVL 301154Z 35005KT 8SM BKN006 15/14 A3003 RMK AO2 SLP152 70003
T01500139 10161 20144 53009


USA.gov is the U.S. government's official web portal to all federal, state and local government web resources and services.